Time;durP1;ratioP1;P1;durP2;ratioP2;P2;SDS_P1;SDS_P2;PMS_P1;PMS_P2;Temp;Humidity;BMP_temperature;BMP_pressure;BME280_temperature;BME280_humidity;BME280_pressure;Samples;Min_cycle;Max_cycle;Signal;HPM_P1;HPM_P2
2024/01/06 00:02:25;;;;;;;1.30;1.20;;;;;;;7.11;100.00;99337.25;5102381;28;20195;-67
2024/01/06 00:04:52;;;;;;;1.07;1.07;;;;;;;7.04;100.00;99329.75;5094724;28;20802;-67
2024/01/06 00:07:19;;;;;;;2.20;2.10;;;;;;;7.19;100.00;99340.53;5094912;28;20259;-68
2024/01/06 00:09:45;;;;;;;1.20;1.00;;;;;;;7.18;100.00;99337.97;5097484;28;20203;-67
2024/01/06 00:12:13;;;;;;;1.30;1.30;;;;;;;7.10;100.00;99345.78;5093257;28;20616;-67
2024/01/06 00:14:43;;;;;;;1.20;1.20;;;;;;;7.09;100.00;99328.78;5093374;28;20208;-67
2024/01/06 00:17:10;;;;;;;1.83;1.73;;;;;;;7.15;100.00;99332.94;5092989;28;20221;-67
2024/01/06 00:19:37;;;;;;;3.63;1.53;;;;;;;7.13;100.00;99340.63;5093090;28;20951;-67
2024/01/06 00:22:04;;;;;;;2.60;2.20;;;;;;;7.07;100.00;99340.75;5092400;28;20199;-67
2024/01/06 00:24:30;;;;;;;0.77;0.77;;;;;;;7.13;100.00;99348.28;5104480;28;20271;-67
2024/01/06 00:26:57;;;;;;;2.90;2.17;;;;;;;7.22;100.00;99360.84;5093136;28;20675;-67
2024/01/06 00:29:25;;;;;;;1.10;1.10;;;;;;;7.27;100.00;99353.97;5092947;28;20264;-68
2024/01/06 00:31:52;;;;;;;2.87;2.23;;;;;;;7.31;100.00;99368.34;5110442;28;20620;-67
2024/01/06 00:34:19;;;;;;;1.73;1.57;;;;;;;7.32;100.00;99372.59;5100901;28;20199;-67
2024/01/06 00:36:45;;;;;;;1.90;1.80;;;;;;;7.38;100.00;99375.03;5096247;28;20268;-67
2024/01/06 00:39:12;;;;;;;6.57;2.30;;;;;;;7.43;100.00;99369.00;5104732;28;20222;-67
2024/01/06 00:41:39;;;;;;;1.33;1.33;;;;;;;7.46;100.00;99359.59;5107638;28;20208;-67
2024/01/06 00:44:05;;;;;;;1.30;1.30;;;;;;;7.49;100.00;99361.25;5093421;28;20203;-67
2024/01/06 00:46:33;;;;;;;1.20;1.20;;;;;;;7.53;100.00;99355.22;5113446;28;20248;-67
2024/01/06 00:49:00;;;;;;;2.50;1.40;;;;;;;7.56;100.00;99339.84;5099046;28;20264;-67
2024/01/06 00:51:27;;;;;;;2.53;2.37;;;;;;;7.55;100.00;99339.00;5104500;28;20663;-67
2024/01/06 00:53:54;;;;;;;3.50;1.90;;;;;;;7.55;100.00;99343.25;5099275;28;20222;-67
2024/01/06 00:56:20;;;;;;;4.23;2.17;;;;;;;7.49;100.00;99333.19;5092521;28;20215;-67
2024/01/06 00:58:47;;;;;;;2.97;2.83;;;;;;;7.49;100.00;99349.34;5101288;28;20296;-67
2024/01/06 01:01:13;;;;;;;5.50;2.00;;;;;;;7.51;100.00;99344.19;5092695;28;20229;-67
2024/01/06 01:03:41;;;;;;;1.80;1.70;;;;;;;7.53;100.00;99345.03;5102276;28;20203;-67
2024/01/06 01:06:08;;;;;;;2.57;2.47;;;;;;;7.56;100.00;99347.50;5095062;28;20195;-67
2024/01/06 01:08:35;;;;;;;1.63;1.60;;;;;;;7.56;100.00;99340.66;5093724;28;20191;-67
2024/01/06 01:11:02;;;;;;;2.23;2.03;;;;;;;7.60;100.00;99338.91;5092778;28;20195;-67
2024/01/06 01:13:28;;;;;;;1.77;1.73;;;;;;;7.61;100.00;99327.84;5092374;28;20212;-67
2024/01/06 01:15:55;;;;;;;6.93;2.73;;;;;;;7.55;100.00;99317.75;5092198;28;20264;-67
2024/01/06 01:18:21;;;;;;;6.97;1.63;;;;;;;7.49;100.00;99322.97;5109837;28;20247;-67
2024/01/06 01:20:49;;;;;;;1.57;1.57;;;;;;;7.51;100.00;99318.69;5099404;28;20207;-67
2024/01/06 01:23:16;;;;;;;1.80;1.70;;;;;;;7.54;100.00;99331.38;5094861;28;20203;-67
2024/01/06 01:25:42;;;;;;;1.70;1.60;;;;;;;7.48;100.00;99316.19;5100444;28;20249;-67
2024/01/06 01:28:09;;;;;;;6.80;2.70;;;;;;;7.54;100.00;99316.91;5092028;28;20240;-67
2024/01/06 01:30:36;;;;;;;2.83;1.93;;;;;;;7.52;100.00;99328.88;5102056;28;20198;-67
2024/01/06 01:33:02;;;;;;;2.83;1.90;;;;;;;7.51;100.00;99336.53;5112251;28;20248;-67
2024/01/06 01:35:29;;;;;;;1.87;1.77;;;;;;;7.52;100.00;99328.03;5094750;28;20660;-67
2024/01/06 01:37:57;;;;;;;1.70;1.50;;;;;;;7.47;100.00;99335.75;5104635;28;20659;-67
2024/01/06 01:40:24;;;;;;;2.53;2.30;;;;;;;7.47;100.00;99325.53;5100123;28;20231;-67
2024/01/06 01:42:50;;;;;;;2.33;2.13;;;;;;;7.50;100.00;99319.53;5100290;28;20224;-67
2024/01/06 01:45:18;;;;;;;1.37;1.27;;;;;;;7.49;100.00;99333.19;5096719;28;20683;-67
2024/01/06 01:47:45;;;;;;;1.87;1.87;;;;;;;7.50;100.00;99334.84;5098422;28;20195;-67
2024/01/06 01:50:13;;;;;;;1.27;1.27;;;;;;;7.49;100.00;99328.09;5097197;28;20260;-67
2024/01/06 01:52:42;;;;;;;3.00;1.77;;;;;;;7.48;100.00;99327.22;5111914;28;20198;-67
2024/01/06 01:55:10;;;;;;;2.90;1.83;;;;;;;7.46;100.00;99317.94;5102883;28;20196;-67
2024/01/06 01:57:37;;;;;;;2.80;1.33;;;;;;;7.48;100.00;99313.63;5091040;28;20214;-67
2024/01/06 02:00:05;;;;;;;1.40;1.30;;;;;;;7.48;100.00;99323.84;5100071;28;20575;-67
2024/01/06 02:02:32;;;;;;;1.03;1.03;;;;;;;7.48;100.00;99324.69;5091257;28;20191;-67
2024/01/06 02:04:59;;;;;;;2.03;1.43;;;;;;;7.47;100.00;99322.16;5096796;28;20199;-67
2024/01/06 02:07:26;;;;;;;1.50;1.43;;;;;;;7.48;100.00;99311.09;5106369;28;20194;-67
2024/01/06 02:09:52;;;;;;;1.30;1.30;;;;;;;7.47;100.00;99309.41;5111533;28;20202;-67
2024/01/06 02:12:20;;;;;;;1.00;0.93;;;;;;;7.33;100.00;99287.53;5111626;28;20670;-67
2024/01/06 02:14:47;;;;;;;1.77;1.67;;;;;;;7.44;100.00;99291.59;5090706;28;20195;-67
2024/01/06 02:17:14;;;;;;;1.40;1.30;;;;;;;7.24;100.00;99272.44;5107709;28;20211;-67
2024/01/06 02:19:41;;;;;;;1.00;1.00;;;;;;;7.33;100.00;99291.84;5091155;28;20195;-67
2024/01/06 02:22:09;;;;;;;2.17;2.07;;;;;;;7.30;100.00;99285.06;5091313;28;20612;-67
2024/01/06 02:24:35;;;;;;;1.23;1.23;;;;;;;7.30;100.00;99292.72;5091204;28;20253;-67
2024/01/06 02:27:02;;;;;;;5.80;1.47;;;;;;;7.32;100.00;99306.28;5090546;28;20202;-67
2024/01/06 02:29:29;;;;;;;0.80;0.80;;;;;;;7.29;100.00;99291.03;5094597;28;20252;-67
2024/01/06 02:31:55;;;;;;;1.83;1.73;;;;;;;7.21;100.00;99280.13;5102640;28;20632;-67
2024/01/06 02:34:22;;;;;;;3.70;2.13;;;;;;;7.27;100.00;99297.88;5098232;28;20263;-67
2024/01/06 02:36:49;;;;;;;1.40;1.40;;;;;;;7.26;100.00;99297.91;5092061;28;20215;-67
2024/01/06 02:39:17;;;;;;;2.63;2.17;;;;;;;7.24;100.00;99297.91;5091984;28;20223;-67
2024/01/06 02:41:43;;;;;;;0.73;0.73;;;;;;;7.23;100.00;99295.41;5098367;28;20199;-67
2024/01/06 02:44:10;;;;;;;2.00;1.90;;;;;;;7.23;100.00;99295.41;5089864;28;22469;-67
2024/01/06 02:46:37;;;;;;;1.67;1.67;;;;;;;7.23;100.00;99292.88;5090695;28;20256;-67
2024/01/06 02:49:04;;;;;;;1.30;1.30;;;;;;;7.23;100.00;99293.72;5097852;28;20240;-67
2024/01/06 02:51:30;;;;;;;1.73;1.73;;;;;;;7.21;100.00;99286.94;5098310;28;20203;-67
2024/01/06 02:53:57;;;;;;;1.73;1.63;;;;;;;7.20;100.00;99296.31;5099520;28;20581;-67
2024/01/06 02:56:25;;;;;;;1.23;1.23;;;;;;;7.16;100.00;99289.59;5101620;28;20256;-67
2024/01/06 02:58:52;;;;;;;1.23;1.13;;;;;;;7.16;100.00;99287.03;5102803;28;20614;-67
2024/01/06 03:01:19;;;;;;;2.10;2.00;;;;;;;7.12;100.00;99282.84;5090481;28;20207;-67
2024/01/06 03:03:45;;;;;;;5.33;2.03;;;;;;;7.09;100.00;99284.63;5090188;28;20199;-67
2024/01/06 03:06:12;;;;;;;1.17;1.17;;;;;;;7.09;100.00;99282.06;5091674;28;20199;-67
2024/01/06 03:08:39;;;;;;;1.83;1.77;;;;;;;7.10;100.00;99279.50;5090623;28;20638;-67
2024/01/06 03:11:05;;;;;;;3.53;1.10;;;;;;;7.09;100.00;99272.72;5090704;28;20256;-67
2024/01/06 03:13:34;;;;;;;1.43;1.43;;;;;;;7.09;100.00;99276.97;5098647;28;20195;-67
2024/01/06 03:16:04;;;;;;;1.20;1.20;;;;;;;7.08;100.00;99268.47;5110877;28;20658;-67
2024/01/06 03:18:31;;;;;;;7.03;1.60;;;;;;;7.06;100.00;99262.59;5110516;28;20240;-67
2024/01/06 03:20:57;;;;;;;7.23;1.87;;;;;;;7.07;100.00;99269.38;5106043;28;20260;-67
2024/01/06 03:23:24;;;;;;;1.40;1.40;;;;;;;7.08;100.00;99265.09;5100808;28;20272;-67
2024/01/06 03:25:51;;;;;;;1.77;1.20;;;;;;;7.05;100.00;99260.91;5109000;28;20228;-68
2024/01/06 03:28:17;;;;;;;1.43;1.40;;;;;;;7.05;100.00;99252.41;5110514;28;20236;-67
2024/01/06 03:30:45;;;;;;;1.50;1.47;;;;;;;7.06;100.00;99249.00;5109155;28;20276;-67
2024/01/06 03:33:12;;;;;;;1.50;1.50;;;;;;;7.02;100.00;99243.09;5088172;28;20195;-67
2024/01/06 03:35:39;;;;;;;1.20;1.20;;;;;;;7.07;100.00;99251.53;5097011;28;20682;-67
2024/01/06 03:38:06;;;;;;;1.70;1.60;;;;;;;7.10;100.00;99263.38;5092681;28;20683;-67
2024/01/06 03:40:33;;;;;;;1.47;1.47;;;;;;;7.10;100.00;99259.13;5097385;28;20225;-67
2024/01/06 03:43:00;;;;;;;1.10;1.10;;;;;;;6.99;100.00;99250.81;5110390;28;20194;-67
2024/01/06 03:45:26;;;;;;;2.03;1.40;;;;;;;7.10;100.00;99264.22;5110561;28;20199;-67
2024/01/06 03:47:55;;;;;;;1.53;1.53;;;;;;;7.13;100.00;99258.22;5110295;28;20198;-67
2024/01/06 03:50:21;;;;;;;0.93;0.93;;;;;;;7.10;100.00;99269.31;5105572;28;20256;-67
2024/01/06 03:52:48;;;;;;;1.63;1.53;;;;;;;7.09;100.00;99262.53;5097771;28;20671;-67
2024/01/06 03:55:16;;;;;;;2.33;1.73;;;;;;;7.04;100.00;99264.34;5091274;28;20202;-67
2024/01/06 03:57:42;;;;;;;1.37;1.37;;;;;;;7.05;100.00;99262.59;5109827;28;20214;-67
2024/01/06 04:00:10;;;;;;;3.20;1.00;;;;;;;7.05;100.00;99266.00;5096736;28;20207;-67
2024/01/06 04:02:37;;;;;;;0.87;0.87;;;;;;;7.06;100.00;99272.78;5107259;28;20199;-67
2024/01/06 04:05:06;;;;;;;1.50;1.43;;;;;;;7.06;100.00;99267.69;5110148;28;20260;-67
2024/01/06 04:07:32;;;;;;;1.80;1.60;;;;;;;7.03;100.00;99267.75;5095438;28;20200;-67
2024/01/06 04:09:59;;;;;;;1.23;1.23;;;;;;;6.99;100.00;99261.00;5092897;28;20203;-67
2024/01/06 04:12:26;;;;;;;1.87;1.77;;;;;;;6.99;100.00;99266.09;5093531;28;20204;-67
2024/01/06 04:14:51;;;;;;;1.23;1.23;;;;;;;6.98;100.00;99271.25;5096069;28;20667;-67
2024/01/06 04:17:18;;;;;;;1.30;1.30;;;;;;;6.99;100.00;99266.09;5094961;28;20229;-68
2024/01/06 04:19:45;;;;;;;1.43;1.43;;;;;;;7.01;100.00;99263.53;5101066;28;20252;-67
2024/01/06 04:22:13;;;;;;;1.53;1.50;;;;;;;6.98;100.00;99269.50;5097636;28;20252;-67
2024/01/06 04:24:40;;;;;;;1.43;1.43;;;;;;;6.93;100.00;99275.56;5113975;28;20259;-67
2024/01/06 04:27:07;;;;;;;1.47;1.23;;;;;;;6.82;100.00;99252.81;5113985;28;20562;-67
2024/01/06 04:29:34;;;;;;;3.00;1.57;;;;;;;6.88;100.00;99268.03;5113823;28;20691;-67
2024/01/06 04:32:00;;;;;;;1.10;1.10;;;;;;;6.89;100.00;99256.94;5113583;28;20195;-67
2024/01/06 04:34:27;;;;;;;1.30;1.27;;;;;;;6.88;100.00;99252.72;5107983;28;20264;-67
2024/01/06 04:36:54;;;;;;;1.47;1.47;;;;;;;6.85;100.00;99260.41;5093177;28;20200;-67
2024/01/06 04:39:22;;;;;;;1.13;0.83;;;;;;;6.82;100.00;99260.44;5100167;28;20279;-67
2024/01/06 04:41:48;;;;;;;1.60;1.37;;;;;;;6.82;100.00;99263.84;5108172;28;20202;-67
2024/01/06 04:44:15;;;;;;;1.47;1.20;;;;;;;6.84;100.00;99266.38;5093274;28;20199;-67
2024/01/06 04:46:42;;;;;;;0.83;0.83;;;;;;;6.82;100.00;99263.00;5092808;28;20667;-67
2024/01/06 04:49:09;;;;;;;1.43;1.40;;;;;;;6.77;100.00;99262.25;5092574;28;20191;-67
2024/01/06 04:51:35;;;;;;;0.97;0.97;;;;;;;6.82;100.00;99278.28;5092851;28;20256;-67
2024/01/06 04:54:02;;;;;;;2.20;1.30;;;;;;;6.83;100.00;99269.78;5084892;28;20273;-67
2024/01/06 04:56:30;;;;;;;3.30;1.00;;;;;;;6.77;100.00;99275.00;5091910;28;20207;-67
2024/01/06 04:58:57;;;;;;;1.47;1.47;;;;;;;6.78;100.00;99263.94;5092335;28;20223;-67
2024/01/06 05:01:24;;;;;;;1.60;1.50;;;;;;;6.74;100.00;99267.41;5091590;28;20643;-67
2024/01/06 05:03:51;;;;;;;1.80;1.70;;;;;;;6.72;100.00;99264.06;5091734;28;20203;-67
2024/01/06 05:06:17;;;;;;;1.13;0.97;;;;;;;6.73;100.00;99258.06;5092429;28;20676;-67
2024/01/06 05:08:45;;;;;;;1.90;1.80;;;;;;;6.74;100.00;99254.66;5091503;28;20207;-67
2024/01/06 05:11:12;;;;;;;8.50;5.20;;;;;;;6.75;100.00;99261.44;5097019;28;20657;-67
2024/01/06 05:13:40;;;;;;;11.80;4.70;;;;;;;6.76;100.00;99274.16;5111091;28;20225;-67
2024/01/06 05:16:08;;;;;;;3.20;1.93;;;;;;;6.77;100.00;99278.38;5106350;28;20198;-67
2024/01/06 05:18:35;;;;;;;0.93;0.93;;;;;;;6.73;100.00;99268.25;5094003;28;20210;-67
2024/01/06 05:21:03;;;;;;;1.20;1.07;;;;;;;6.73;100.00;99276.75;5103606;28;20199;-67
2024/01/06 05:23:30;;;;;;;17.37;10.53;;;;;;;6.69;100.00;99266.63;5092401;28;20200;-68
2024/01/06 05:25:57;;;;;;;22.37;11.03;;;;;;;6.66;100.00;99262.44;5091934;28;20709;-67
2024/01/06 05:28:23;;;;;;;8.53;6.33;;;;;;;6.72;100.00;99267.41;5091815;28;20625;-67
2024/01/06 05:30:51;;;;;;;6.47;5.30;;;;;;;6.71;100.00;99270.84;5107548;28;20248;-67
2024/01/06 05:33:18;;;;;;;2.33;2.13;;;;;;;6.73;100.00;99283.53;5099785;28;20675;-67
2024/01/06 05:35:45;;;;;;;3.80;3.20;;;;;;;6.71;100.00;99280.19;5112248;28;20195;-67
2024/01/06 05:38:11;;;;;;;2.87;2.30;;;;;;;6.68;100.00;99285.34;5111907;28;20211;-67
2024/01/06 05:40:38;;;;;;;2.93;2.73;;;;;;;6.73;100.00;99283.53;5092526;28;20226;-67
2024/01/06 05:43:05;;;;;;;2.27;2.17;;;;;;;6.66;100.00;99281.97;5091634;28;20206;-67
2024/01/06 05:45:32;;;;;;;7.87;1.80;;;;;;;6.62;100.00;99290.53;5091482;28;20199;-67
2024/01/06 05:48:00;;;;;;;1.67;1.40;;;;;;;6.59;100.00;99290.59;5091585;28;20246;-67
2024/01/06 05:50:26;;;;;;;7.67;1.33;;;;;;;6.57;100.00;99288.06;5100053;28;20195;-67
2024/01/06 05:52:53;;;;;;;5.13;1.57;;;;;;;6.58;100.00;99278.72;5101185;28;20253;-67
2024/01/06 05:55:20;;;;;;;0.90;0.90;;;;;;;6.55;100.00;99279.59;5091074;28;20248;-68
2024/01/06 05:57:47;;;;;;;1.93;1.17;;;;;;;6.56;100.00;99283.00;5092426;28;20215;-67
2024/01/06 06:00:14;;;;;;;1.70;1.63;;;;;;;6.58;100.00;99278.72;5097977;28;20199;-67
2024/01/06 06:02:41;;;;;;;1.97;1.80;;;;;;;6.54;100.00;99279.63;5111763;28;20199;-67
2024/01/06 06:05:09;;;;;;;1.70;1.60;;;;;;;6.52;100.00;99279.66;5111378;28;20199;-67
2024/01/06 06:07:38;;;;;;;4.27;2.30;;;;;;;6.51;100.00;99272.03;5091932;28;20207;-67
2024/01/06 06:10:08;;;;;;;2.07;1.97;;;;;;;6.52;100.00;99271.16;5093181;28;20195;-67
2024/01/06 06:12:34;;;;;;;2.50;1.83;;;;;;;6.48;100.00;99272.06;5096902;28;20206;-67
2024/01/06 06:15:03;;;;;;;1.07;1.07;;;;;;;6.50;100.00;99271.19;5096587;28;20205;-67
2024/01/06 06:17:30;;;;;;;1.93;1.83;;;;;;;6.53;100.00;99255.00;5090628;28;20214;-67
2024/01/06 06:19:57;;;;;;;1.93;1.90;;;;;;;6.56;100.00;99252.44;5096065;28;20195;-67
2024/01/06 06:22:26;;;;;;;1.63;1.63;;;;;;;6.52;100.00;99254.19;5099097;28;20248;-68
2024/01/06 06:24:53;;;;;;;1.50;1.40;;;;;;;6.56;100.00;99270.25;5087847;28;20672;-67
2024/01/06 06:27:19;;;;;;;2.30;2.03;;;;;;;6.52;100.00;99254.19;5091567;28;20200;-67
2024/01/06 06:29:46;;;;;;;1.27;1.27;;;;;;;6.54;100.00;99241.41;5095109;28;20196;-67
2024/01/06 06:32:13;;;;;;;5.80;2.90;;;;;;;6.53;100.00;99248.22;5094340;28;20202;-67
2024/01/06 06:34:40;;;;;;;1.83;1.83;;;;;;;6.53;100.00;99247.38;5102455;28;20202;-67
2024/01/06 06:37:07;;;;;;;7.07;2.03;;;;;;;6.51;100.00;99231.28;5098611;28;20206;-67
2024/01/06 06:39:35;;;;;;;7.83;1.77;;;;;;;6.56;100.00;99235.44;5089738;28;20231;-67
2024/01/06 06:42:02;;;;;;;7.37;1.80;;;;;;;6.53;100.00;99225.28;5086565;28;20215;-67
2024/01/06 06:44:29;;;;;;;1.07;1.07;;;;;;;6.59;100.00;99232.81;5092774;28;20191;-67
2024/01/06 06:46:55;;;;;;;2.97;2.77;;;;;;;6.54;100.00;99215.94;5094418;28;20260;-68
2024/01/06 06:49:22;;;;;;;2.27;2.23;;;;;;;6.64;100.00;99228.50;5104206;28;20195;-67
2024/01/06 06:51:49;;;;;;;4.93;1.93;;;;;;;6.60;100.00;99231.13;5093077;28;20256;-67
2024/01/06 06:54:17;;;;;;;2.30;1.60;;;;;;;6.67;100.00;99253.94;5093529;28;20227;-67
2024/01/06 06:56:45;;;;;;;2.87;2.67;;;;;;;6.68;100.00;99247.13;5085851;28;20196;-67
2024/01/06 06:59:12;;;;;;;2.43;2.33;;;;;;;6.66;100.00;99248.84;5091165;28;20272;-67
2024/01/06 07:01:39;;;;;;;3.43;3.33;;;;;;;6.69;100.00;99246.25;5096854;28;20675;-67
2024/01/06 07:04:05;;;;;;;1.53;1.53;;;;;;;6.71;100.00;99249.63;5095198;28;20199;-67
2024/01/06 07:06:32;;;;;;;2.50;2.10;;;;;;;6.68;100.00;99244.59;5100973;28;20202;-67
2024/01/06 07:08:59;;;;;;;2.40;2.17;;;;;;;6.73;100.00;99246.19;5088640;28;20203;-67
2024/01/06 07:11:27;;;;;;;1.30;1.27;;;;;;;6.75;100.00;99235.97;5089832;28;20209;-67
2024/01/06 07:13:55;;;;;;;1.50;1.50;;;;;;;6.76;100.00;99235.09;5087755;28;20206;-67
2024/01/06 07:16:22;;;;;;;1.60;1.60;;;;;;;6.59;100.00;99229.47;5099326;28;20724;-67
2024/01/06 07:18:48;;;;;;;2.03;1.93;;;;;;;6.58;100.00;99237.97;5102446;28;20260;-67
2024/01/06 07:21:15;;;;;;;3.73;3.40;;;;;;;6.59;100.00;99230.28;5097168;28;20200;-67
2024/01/06 07:23:42;;;;;;;4.47;2.43;;;;;;;6.61;100.00;99231.13;5096656;28;20204;-66
2024/01/06 07:26:09;;;;;;;2.30;1.77;;;;;;;6.68;100.00;99242.88;5095313;28;20767;-66
2024/01/06 07:28:35;;;;;;;1.80;1.70;;;;;;;6.71;100.00;99239.44;5095134;28;20651;-66
2024/01/06 07:31:04;;;;;;;1.40;1.40;;;;;;;6.68;100.00;99239.50;5100552;28;20195;-66
2024/01/06 07:33:31;;;;;;;1.37;1.37;;;;;;;6.70;100.00;99238.59;5101600;28;20207;-67
2024/01/06 07:35:57;;;;;;;2.03;1.47;;;;;;;6.69;100.00;99247.09;5098808;28;20248;-66
2024/01/06 07:38:24;;;;;;;1.97;1.87;;;;;;;6.71;100.00;99235.19;5092683;28;20687;-66
2024/01/06 07:40:51;;;;;;;2.83;1.73;;;;;;;6.79;100.00;99232.47;5101436;28;20287;-66
2024/01/06 07:43:17;;;;;;;1.73;1.70;;;;;;;6.72;100.00;99230.94;5101090;28;20667;-66
2024/01/06 07:45:44;;;;;;;1.90;1.77;;;;;;;6.74;100.00;99240.22;5106872;28;20635;-67
2024/01/06 07:48:12;;;;;;;1.70;1.60;;;;;;;6.80;100.00;99229.09;5099356;28;20206;-66
2024/01/06 07:50:39;;;;;;;2.63;2.43;;;;;;;6.83;100.00;99232.41;5096144;28;20210;-66
2024/01/06 07:53:05;;;;;;;2.00;1.97;;;;;;;6.89;100.00;99234.00;5099071;28;20255;-66
2024/01/06 07:55:32;;;;;;;4.10;2.07;;;;;;;6.95;100.00;99222.88;5097601;28;20567;-67
2024/01/06 07:57:59;;;;;;;2.93;2.03;;;;;;;7.00;100.00;99227.03;5099622;28;20211;-67
2024/01/06 08:00:26;;;;;;;2.93;2.00;;;;;;;7.05;100.00;99230.31;5104980;28;20600;-67
2024/01/06 08:02:53;;;;;;;3.20;1.97;;;;;;;7.03;100.00;99221.88;5097703;28;20266;-66
2024/01/06 08:05:21;;;;;;;1.47;1.47;;;;;;;7.02;100.00;99225.28;5096249;28;20273;-66
2024/01/06 08:07:47;;;;;;;2.30;1.93;;;;;;;7.03;100.00;99232.06;5100553;28;20200;-66
2024/01/06 08:10:14;;;;;;;1.63;1.53;;;;;;;7.03;100.00;99214.22;5094828;28;20608;-66
2024/01/06 08:12:41;;;;;;;1.20;1.20;;;;;;;7.14;100.00;99221.66;5104296;28;20206;-66
2024/01/06 08:15:09;;;;;;;4.40;2.37;;;;;;;7.15;100.00;99224.16;5104542;28;20671;-66
2024/01/06 08:17:36;;;;;;;2.13;2.03;;;;;;;7.13;100.00;99218.28;5104596;28;20194;-66
2024/01/06 08:20:03;;;;;;;1.37;1.37;;;;;;;7.16;100.00;99215.66;5105781;28;20671;-66
2024/01/06 08:22:31;;;;;;;3.73;2.20;;;;;;;7.22;100.00;99227.44;5099209;28;20204;-66
2024/01/06 08:24:58;;;;;;;2.60;2.40;;;;;;;7.26;100.00;99234.16;5099779;28;20199;-67
2024/01/06 08:27:24;;;;;;;2.13;2.07;;;;;;;7.30;100.00;99236.59;5104820;28;20203;-66
2024/01/06 08:29:54;;;;;;;3.13;2.90;;;;;;;7.27;100.00;99221.38;5102878;28;20659;-66
2024/01/06 08:32:21;;;;;;;3.70;3.43;;;;;;;7.43;100.00;99231.28;5101011;28;20628;-67
2024/01/06 08:34:48;;;;;;;2.63;2.00;;;;;;;7.53;100.00;99232.78;5101003;28;20636;-67
2024/01/06 08:37:15;;;;;;;2.97;2.80;;;;;;;7.58;100.00;99236.06;5099637;28;20203;-66
2024/01/06 08:39:43;;;;;;;3.47;2.80;;;;;;;7.58;100.00;99229.25;5101066;28;20219;-66
2024/01/06 08:42:10;;;;;;;6.63;2.37;;;;;;;7.56;100.00;99219.97;5099424;28;20211;-67
2024/01/06 08:44:36;;;;;;;8.02;4.43;;;;;;;7.80;100.00;99232.19;5091162;28;20971;-64
2024/01/06 08:47:03;;;;;;;4.13;3.73;;;;;;;7.87;100.00;99228.63;5091039;28;20195;-64
2024/01/06 08:49:30;;;;;;;2.37;2.17;;;;;;;7.91;100.00;99228.53;5090799;28;20199;-64
2024/01/06 08:51:58;;;;;;;10.23;2.87;;;;;;;8.02;100.00;99223.19;5089600;28;20636;-64
2024/01/06 08:54:25;;;;;;;2.57;2.47;;;;;;;8.08;100.00;99219.66;5091915;28;20248;-64
2024/01/06 08:56:53;;;;;;;3.87;2.97;;;;;;;8.07;100.00;99208.63;5087127;28;20556;-64
2024/01/06 08:59:20;;;;;;;2.03;1.93;;;;;;;8.17;100.00;99209.25;5088563;28;20223;-64
2024/01/06 09:01:47;;;;;;;3.23;2.47;;;;;;;8.13;100.00;99218.69;5091533;28;20298;-64
2024/01/06 09:04:14;;;;;;;2.07;1.97;;;;;;;8.25;100.00;99215.84;5096904;28;20556;-64
2024/01/06 09:06:41;;;;;;;4.27;2.23;;;;;;;8.25;100.00;99210.72;5105286;28;20214;-64
2024/01/06 09:09:08;;;;;;;2.27;2.07;;;;;;;8.23;100.00;99197.16;5092223;28;20541;-64
2024/01/06 09:11:35;;;;;;;2.90;2.73;;;;;;;8.33;100.00;99200.38;5092561;28;20223;-64
2024/01/06 09:14:03;;;;;;;1.93;1.83;;;;;;;8.41;100.00;99191.63;5089685;28;20242;-64
2024/01/06 09:16:30;;;;;;;2.43;2.27;;;;;;;8.43;100.00;99189.06;5091838;28;20265;-64
2024/01/06 09:18:57;;;;;;;16.97;5.43;;;;;;;8.39;100.00;99182.34;5090351;28;20227;-64
2024/01/06 09:21:24;;;;;;;5.73;4.30;;;;;;;8.49;100.00;99177.84;5092596;28;20740;-64
2024/01/06 09:23:50;;;;;;;6.60;3.73;;;;;;;8.52;100.00;99185.41;5092259;28;20583;-64
2024/01/06 09:26:17;;;;;;;3.17;2.90;;;;;;;8.53;100.00;99169.22;5092545;28;20191;-64
2024/01/06 09:28:44;;;;;;;3.63;2.67;;;;;;;8.60;100.00;99181.78;5092386;28;20207;-64
2024/01/06 09:31:12;;;;;;;4.17;3.77;;;;;;;8.65;100.00;99184.22;5092064;28;20200;-64
2024/01/06 09:33:39;;;;;;;5.23;2.93;;;;;;;8.65;100.00;99181.69;5092293;28;20204;-64
2024/01/06 09:36:06;;;;;;;4.03;3.63;;;;;;;8.64;100.00;99172.31;5091921;28;20234;-64
2024/01/06 09:38:33;;;;;;;6.47;3.37;;;;;;;8.64;100.00;99162.94;5091398;28;20204;-64
2024/01/06 09:41:00;;;;;;;7.30;3.43;;;;;;;8.70;100.00;99151.72;5091809;28;20199;-64
2024/01/06 09:43:27;;;;;;;4.23;3.57;;;;;;;8.89;100.00;99156.28;5092233;28;20222;-64
2024/01/06 09:46:03;;;;;;;3.57;3.27;;;;;;;8.94;100.00;99148.50;5092061;28;20348;-65
2024/01/06 09:48:31;;;;;;;7.40;5.67;;;;;;;8.95;100.00;99132.28;5092090;28;20199;-64
2024/01/06 09:51:03;;;;;;;7.53;3.77;;;;;;;9.00;100.00;99133.00;5092214;28;20612;-64
2024/01/06 09:53:36;;;;;;;11.07;5.23;;;;;;;9.00;100.00;99135.56;5112186;28;20548;-64
2024/01/06 09:56:03;;;;;;;14.43;4.23;;;;;;;9.05;100.00;99133.69;5112465;28;20230;-64
2024/01/06 09:58:34;;;;;;;9.87;3.80;;;;;;;9.03;100.00;99122.69;5112252;28;20298;-64
2024/01/06 10:01:01;;;;;;;3.93;2.90;;;;;;;9.12;100.00;99124.97;5106207;28;20210;-65
2024/01/06 10:03:28;;;;;;;2.80;2.60;;;;;;;9.10;100.00;99101.19;5096211;28;20199;-64
2024/01/06 10:06:00;;;;;;;5.13;3.60;;;;;;;9.10;100.00;99111.41;5091192;28;20199;-64
2024/01/06 10:08:27;;;;;;;4.17;3.67;;;;;;;9.16;100.00;99110.38;5100475;28;20195;-61
2024/01/06 10:10:54;;;;;;;3.33;3.10;;;;;;;9.22;100.00;99105.09;5099024;28;20222;-64
2024/01/06 10:13:20;;;;;;;3.73;3.40;;;;;;;9.21;100.00;99083.78;5099142;28;20203;-61
2024/01/06 10:15:47;;;;;;;8.07;4.00;;;;;;;9.34;100.00;99095.31;5107745;28;20199;-61
2024/01/06 10:18:14;;;;;;;6.73;4.30;;;;;;;9.38;100.00;99096.91;5106031;28;20199;-61
2024/01/06 10:20:41;;;;;;;3.57;2.63;;;;;;;9.43;100.00;99095.03;5105303;28;20214;-60
2024/01/06 10:23:09;;;;;;;4.80;3.03;;;;;;;9.39;100.00;99085.81;5102385;28;20662;-61
2024/01/06 10:25:36;;;;;;;4.07;3.10;;;;;;;9.41;100.00;99081.47;5104185;28;20250;-61
2024/01/06 10:28:04;;;;;;;2.43;2.20;;;;;;;9.48;100.00;99088.09;5092275;28;20682;-65
2024/01/06 10:30:30;;;;;;;3.03;2.93;;;;;;;9.49;100.00;99074.41;5100958;28;20690;-65
2024/01/06 10:32:56;;;;;;;7.37;3.33;;;;;;;9.58;100.00;99064.75;5111857;28;20194;-65
2024/01/06 10:35:25;;;;;;;4.33;1.57;;;;;;;9.63;100.00;99065.47;5111481;28;20247;-65
2024/01/06 10:37:53;;;;;;;5.50;2.93;;;;;;;9.69;100.00;99067.84;5107787;28;20230;-60
2024/01/06 10:40:20;;;;;;;2.47;2.33;;;;;;;9.75;100.00;99065.91;5100031;28;20744;-61
2024/01/06 10:42:46;;;;;;;3.23;2.73;;;;;;;9.81;100.00;99063.16;5101183;28;20659;-61
2024/01/06 10:45:14;;;;;;;4.07;3.47;;;;;;;9.69;100.00;99030.28;5103536;28;20256;-62
2024/01/06 10:47:42;;;;;;;2.80;2.00;;;;;;;9.86;100.00;99052.75;5111167;28;20319;-65
2024/01/06 10:50:10;;;;;;;3.70;1.97;;;;;;;9.89;100.00;99052.66;5111885;28;20190;-65
2024/01/06 10:52:38;;;;;;;2.33;2.13;;;;;;;9.89;100.00;99042.41;5111435;28;20662;-65
2024/01/06 10:55:06;;;;;;;2.23;2.13;;;;;;;9.88;100.00;99040.75;5111901;28;20194;-65
2024/01/06 10:57:35;;;;;;;2.17;2.07;;;;;;;9.88;100.00;99038.19;5111111;28;20191;-65
2024/01/06 11:00:02;;;;;;;2.30;2.10;;;;;;;9.82;100.00;99017.91;5111357;28;20656;-65
2024/01/06 11:02:28;;;;;;;2.47;2.30;;;;;;;9.93;100.00;99028.63;5111287;28;20194;-65
2024/01/06 11:04:55;;;;;;;2.33;2.23;;;;;;;10.00;100.00;99019.84;5110704;28;20258;-65
2024/01/06 11:07:24;;;;;;;2.53;2.33;;;;;;;10.05;100.00;99017.97;5111300;28;20202;-65
2024/01/06 11:09:57;;;;;;;2.77;2.13;;;;;;;10.10;100.00;99020.38;5111262;28;20214;-65
2024/01/06 11:12:26;;;;;;;3.13;2.97;;;;;;;10.14;100.00;99010.03;5104438;28;20199;-65
2024/01/06 11:14:54;;;;;;;6.90;2.60;;;;;;;10.19;100.00;99005.56;5090692;28;20196;-65
2024/01/06 11:17:55;;;;;;;2.60;2.27;;;;;;;10.25;100.00;99005.34;5090867;28;20309;-65
2024/01/06 11:20:22;;;;;;;3.10;2.73;;;;;;;10.15;100.00;99000.56;5089210;28;20221;-65
2024/01/06 11:22:49;;;;;;;2.90;2.57;;;;;;;10.23;100.00;98999.44;5090879;28;20199;-65
2024/01/06 11:25:18;;;;;;;8.03;4.20;;;;;;;10.33;100.00;99003.34;5095231;28;20195;-65
2024/01/06 11:27:46;;;;;;;2.83;2.73;;;;;;;10.43;100.00;98994.47;5107937;28;20206;-65
2024/01/06 11:30:26;;;;;;;14.57;5.77;;;;;;;10.38;100.00;98975.00;5111081;28;20265;-65
2024/01/06 11:32:53;;;;;;;4.63;4.27;;;;;;;10.42;100.00;98969.72;5110897;28;20195;-65